createdAt,value
2018-09-05T00:02:18.339Z,69.00
2018-09-05T00:05:22.612Z,69.20
2018-09-05T00:08:26.813Z,69.40
2018-09-05T00:11:31.278Z,70.20
2018-09-05T00:14:36.275Z,71.20
2018-09-05T00:17:40.500Z,71.70
2018-09-05T00:20:44.812Z,71.20
2018-09-05T00:23:49.282Z,70.40
2018-09-05T00:26:53.474Z,70.00
2018-09-05T00:29:59.623Z,69.60
2018-09-05T00:33:07.394Z,69.30
2018-09-05T00:36:13.530Z,68.10
2018-09-05T00:39:17.976Z,68.70
2018-09-05T00:42:22.364Z,69.50
2018-09-05T00:45:27.069Z,70.40
2018-09-05T00:48:31.398Z,70.20
2018-09-05T00:51:35.761Z,70.40
2018-09-05T00:54:39.941Z,71.20
2018-09-05T00:57:44.177Z,70.80
2018-09-05T01:00:48.382Z,71.20
2018-09-05T01:03:52.700Z,70.60
2018-09-05T01:06:56.878Z,70.80
2018-09-05T01:10:01.297Z,70.80
2018-09-05T01:13:05.611Z,70.90
2018-09-05T01:16:09.806Z,71.10
2018-09-05T01:19:14.109Z,71.70
2018-09-05T01:22:18.432Z,72.10
2018-09-05T01:25:22.753Z,72.60
2018-09-05T01:28:27.078Z,72.50
2018-09-05T01:31:31.475Z,72.80
2018-09-05T01:34:35.867Z,73.10
2018-09-05T01:37:40.034Z,73.90
2018-09-05T01:40:44.327Z,73.70
2018-09-05T01:43:48.515Z,73.40
2018-09-05T01:46:52.986Z,73.60
2018-09-05T01:49:57.318Z,74.00
2018-09-05T01:53:01.598Z,74.20
2018-09-05T01:56:05.860Z,74.10
2018-09-05T01:59:10.125Z,74.20
2018-09-05T02:02:14.798Z,74.80
2018-09-05T02:05:18.932Z,74.90
2018-09-05T02:08:23.100Z,75.30
2018-09-05T02:11:27.449Z,75.80
2018-09-05T02:14:31.688Z,75.60
2018-09-05T02:17:36.042Z,75.60
2018-09-05T02:20:40.537Z,75.50
2018-09-05T02:23:44.711Z,75.70
2018-09-05T02:26:49.035Z,76.00
2018-09-05T02:29:53.423Z,76.20
2018-09-05T02:32:57.828Z,76.00
2018-09-05T02:36:01.929Z,76.00
2018-09-05T02:39:08.883Z,75.90
2018-09-05T02:42:13.206Z,76.10
2018-09-05T02:45:17.562Z,76.20
2018-09-05T02:48:21.889Z,76.20
2018-09-05T02:51:26.104Z,75.90
2018-09-05T02:54:30.348Z,75.80
2018-09-05T02:57:34.395Z,75.70
2018-09-05T03:00:38.517Z,75.30
2018-09-05T03:03:42.635Z,74.50
2018-09-05T03:06:46.835Z,72.70
2018-09-05T03:09:51.139Z,72.00
2018-09-05T03:12:55.357Z,71.90
2018-09-05T03:15:59.718Z,71.50
2018-09-05T03:19:04.335Z,71.20
2018-09-05T03:22:08.393Z,70.70
2018-09-05T03:25:12.869Z,70.20
2018-09-05T03:28:17.235Z,68.80
2018-09-05T03:31:21.570Z,68.50
2018-09-05T03:34:26.139Z,68.40
2018-09-05T03:37:30.492Z,67.80
2018-09-05T03:40:34.757Z,68.10
2018-09-05T03:43:38.919Z,67.60
2018-09-05T03:46:43.321Z,67.70
2018-09-05T03:49:47.680Z,67.80
2018-09-05T03:52:51.985Z,67.70
2018-09-05T03:55:56.691Z,67.50
2018-09-05T03:59:00.910Z,67.60
2018-09-05T04:02:05.195Z,67.60
2018-09-05T04:05:09.487Z,67.50
2018-09-05T04:08:13.861Z,67.40
2018-09-05T04:11:18.192Z,67.30
2018-09-05T04:14:22.489Z,67.10
2018-09-05T04:17:27.754Z,66.90
2018-09-05T04:20:32.324Z,66.90
2018-09-05T04:23:41.569Z,67.00
2018-09-05T04:26:45.775Z,67.00
2018-09-05T04:29:50.316Z,67.60
2018-09-05T04:32:54.633Z,67.80
2018-09-05T04:35:58.975Z,68.50
2018-09-05T04:39:03.368Z,68.70
2018-09-05T04:42:07.478Z,69.30
2018-09-05T04:45:11.647Z,69.50
2018-09-05T04:48:15.965Z,69.90
2018-09-05T04:51:20.150Z,69.90
2018-09-05T04:54:24.464Z,70.20
2018-09-05T04:57:28.843Z,70.50
2018-09-05T05:00:33.111Z,70.40
2018-09-05T05:03:37.417Z,70.40
2018-09-05T05:06:41.750Z,70.20
2018-09-05T05:09:46.000Z,70.40
2018-09-05T05:12:50.376Z,70.30
2018-09-05T05:15:54.622Z,70.60
2018-09-05T05:18:58.962Z,70.80
2018-09-05T05:22:03.319Z,71.10
2018-09-05T05:25:07.744Z,71.10
2018-09-05T05:28:12.041Z,70.40
2018-09-05T05:31:16.452Z,69.40
2018-09-05T05:34:20.985Z,68.70
2018-09-05T05:37:25.310Z,68.70
2018-09-05T05:40:30.075Z,68.80
2018-09-05T05:43:34.384Z,68.10
2018-09-05T05:46:38.809Z,67.60
2018-09-05T05:49:43.107Z,67.90
2018-09-05T05:52:47.580Z,67.30
2018-09-05T05:55:51.849Z,66.90
2018-09-05T05:58:56.205Z,67.50
2018-09-05T06:02:00.660Z,67.50
2018-09-05T06:05:05.083Z,66.90
2018-09-05T06:08:09.365Z,66.80
2018-09-05T06:11:13.712Z,66.40
2018-09-05T06:14:17.782Z,65.90
2018-09-05T06:17:22.064Z,65.80
2018-09-05T06:20:26.271Z,65.40
2018-09-05T06:23:30.533Z,65.50
2018-09-05T06:26:34.913Z,64.80
2018-09-05T06:29:39.205Z,64.70
2018-09-05T06:32:43.518Z,64.30
2018-09-05T06:35:48.356Z,63.80
2018-09-05T06:38:52.803Z,63.70
2018-09-05T06:42:03.326Z,62.90
2018-09-05T06:45:07.714Z,63.00
2018-09-05T06:48:12.031Z,63.00
2018-09-05T06:51:16.645Z,63.20
2018-09-05T06:54:21.090Z,63.50
2018-09-05T06:57:25.584Z,62.80
2018-09-05T07:00:30.022Z,62.60
2018-09-05T07:03:34.274Z,61.80
2018-09-05T07:06:38.686Z,61.10
2018-09-05T07:09:43.190Z,60.00
2018-09-05T07:12:47.539Z,59.30
2018-09-05T07:15:51.822Z,58.40
2018-09-05T07:18:56.113Z,57.70
2018-09-05T07:22:00.554Z,56.30
2018-09-05T07:25:04.999Z,54.80
2018-09-05T07:28:09.280Z,54.20
2018-09-05T07:31:14.174Z,53.30
2018-09-05T07:34:18.643Z,49.90
2018-09-05T07:37:23.103Z,43.70
2018-09-05T07:40:27.271Z,37.50
2018-09-05T07:43:31.418Z,36.40
2018-09-05T07:46:35.573Z,38.50
2018-09-05T07:49:39.994Z,40.70
2018-09-05T07:52:44.327Z,42.20
2018-09-05T07:55:48.406Z,41.80
2018-09-05T07:58:52.769Z,40.60
2018-09-05T08:01:57.060Z,36.70
2018-09-05T08:05:01.333Z,31.80
2018-09-05T08:08:05.928Z,27.90
2018-09-05T08:11:10.322Z,25.90
2018-09-05T08:14:14.661Z,23.70
2018-09-05T08:17:19.142Z,23.50
2018-09-05T08:20:23.622Z,22.80
2018-09-05T08:23:28.491Z,22.40
2018-09-05T08:26:32.990Z,22.20
2018-09-05T08:29:37.411Z,21.50
2018-09-05T08:32:41.609Z,19.50
2018-09-05T08:35:46.262Z,18.60
2018-09-05T08:38:50.734Z,17.70
2018-09-05T08:41:55.039Z,17.70
2018-09-05T08:44:59.233Z,17.50
2018-09-05T08:48:03.589Z,17.30
2018-09-05T08:51:07.903Z,16.20
2018-09-05T08:54:12.051Z,15.90
2018-09-05T08:57:16.408Z,15.30
2018-09-05T09:00:20.982Z,15.40
2018-09-05T09:03:25.265Z,15.20
2018-09-05T09:06:29.470Z,14.60
2018-09-05T09:09:33.671Z,13.80
2018-09-05T09:12:38.874Z,13.30
2018-09-05T09:15:47.822Z,13.10
2018-09-05T09:18:52.412Z,12.70
2018-09-05T09:21:56.622Z,12.40
2018-09-05T09:25:00.869Z,12.50
2018-09-05T09:28:05.373Z,12.50
2018-09-05T09:31:09.803Z,12.40
2018-09-05T09:34:14.144Z,11.70
2018-09-05T09:37:18.463Z,11.60
2018-09-05T09:40:22.823Z,11.40
2018-09-05T09:43:27.475Z,11.30
2018-09-05T09:46:31.807Z,11.90
2018-09-05T09:49:35.962Z,12.70
2018-09-05T09:52:40.128Z,13.30
2018-09-05T09:55:44.475Z,14.00
2018-09-05T09:58:48.768Z,14.60
2018-09-05T10:01:58.165Z,15.60
2018-09-05T10:05:07.301Z,16.70
2018-09-05T10:08:16.806Z,17.70
2018-09-05T10:11:25.296Z,19.60
2018-09-05T10:14:32.854Z,20.10
2018-09-05T10:17:37.805Z,20.40
2018-09-05T10:20:41.989Z,21.70
2018-09-05T10:23:46.408Z,22.00
2018-09-05T10:27:18.568Z,23.20
2018-09-05T10:30:22.886Z,24.00
2018-09-05T10:33:27.042Z,24.80
2018-09-05T10:36:31.949Z,25.40
2018-09-05T10:39:36.303Z,25.90
2018-09-05T10:42:40.624Z,26.80
2018-09-05T10:45:44.760Z,27.50
2018-09-05T10:48:49.040Z,28.00
2018-09-05T10:51:56.312Z,28.00
2018-09-05T10:55:01.041Z,28.10
2018-09-05T10:58:05.778Z,29.10
2018-09-05T11:01:09.981Z,29.00
2018-09-05T11:04:14.819Z,29.40
2018-09-05T11:07:19.043Z,29.30
2018-09-05T11:10:23.447Z,29.80
2018-09-05T11:13:27.793Z,29.90
2018-09-05T11:16:32.187Z,29.50
2018-09-05T11:19:36.440Z,29.40
2018-09-05T11:22:41.135Z,29.70
2018-09-05T11:25:45.482Z,29.20
2018-09-05T11:28:49.862Z,28.90
2018-09-05T11:31:54.447Z,28.10
2018-09-05T11:34:58.710Z,27.50
2018-09-05T11:38:02.599Z,27.30
2018-09-05T11:41:06.756Z,29.10
2018-09-05T11:44:10.819Z,28.50
2018-09-05T11:47:14.934Z,27.40
2018-09-05T11:50:18.881Z,27.70
2018-09-05T11:53:22.751Z,26.30
2018-09-05T11:56:26.695Z,27.00
2018-09-05T11:59:30.642Z,27.70
2018-09-05T12:02:34.705Z,28.90
2018-09-05T12:05:38.635Z,29.50
2018-09-05T12:08:42.742Z,28.40
2018-09-05T12:11:46.772Z,28.00
2018-09-05T12:14:50.663Z,28.70
2018-09-05T12:17:54.554Z,28.90
2018-09-05T12:20:58.727Z,29.90
2018-09-05T12:24:02.670Z,29.10
2018-09-05T12:27:06.553Z,29.40
2018-09-05T12:30:10.511Z,30.50
2018-09-05T12:33:14.441Z,29.70
2018-09-05T12:36:18.353Z,30.40
2018-09-05T12:39:22.475Z,29.10
2018-09-05T12:42:26.475Z,31.10
2018-09-05T12:45:30.409Z,29.10
2018-09-05T12:48:34.346Z,29.40
2018-09-05T12:51:38.296Z,30.00
2018-09-05T12:54:42.390Z,30.60
2018-09-05T12:57:46.486Z,31.20
2018-09-05T13:00:50.682Z,31.00
2018-09-05T13:03:54.619Z,31.30
2018-09-05T13:06:58.586Z,30.90
2018-09-05T13:10:02.437Z,30.10
2018-09-05T13:13:06.565Z,30.80
2018-09-05T13:16:10.485Z,31.20
2018-09-05T13:19:14.567Z,30.70
2018-09-05T13:22:18.548Z,30.30
2018-09-05T13:25:22.470Z,30.50
2018-09-05T13:28:26.514Z,31.60
2018-09-05T13:31:30.413Z,31.60
2018-09-05T13:34:34.335Z,30.40
2018-09-05T13:37:38.492Z,31.40
2018-09-05T13:40:42.395Z,31.20
2018-09-05T13:43:46.456Z,31.10
2018-09-05T13:46:50.367Z,31.00
2018-09-05T13:49:54.314Z,30.40
2018-09-05T13:52:58.216Z,29.90
2018-09-05T13:56:02.355Z,31.90
2018-09-05T13:59:06.372Z,32.60
2018-09-05T14:02:10.266Z,32.30
2018-09-05T14:05:14.597Z,32.00
2018-09-05T14:08:18.462Z,32.20
2018-09-05T14:11:22.356Z,31.80
2018-09-05T14:14:26.660Z,31.20
2018-09-05T14:17:30.998Z,32.30
2018-09-05T14:20:35.328Z,32.70
2018-09-05T14:23:39.640Z,32.30
2018-09-05T14:26:43.912Z,32.30
2018-09-05T14:29:48.939Z,32.70
2018-09-05T14:32:53.394Z,32.90
2018-09-05T14:35:57.630Z,33.10
2018-09-05T14:39:02.124Z,33.60
2018-09-05T14:42:06.286Z,33.80
2018-09-05T14:45:10.723Z,34.20
2018-09-05T14:48:15.098Z,34.30
2018-09-05T14:51:19.443Z,35.10
2018-09-05T14:54:23.904Z,35.90
2018-09-05T14:57:28.564Z,36.60
2018-09-05T15:00:32.966Z,35.60
2018-09-05T15:03:37.303Z,36.20
2018-09-05T15:06:41.585Z,35.20
2018-09-05T15:09:45.906Z,35.90
2018-09-05T15:12:50.149Z,35.40
2018-09-05T15:15:54.594Z,35.80
2018-09-05T15:18:58.870Z,36.30
2018-09-05T15:22:03.081Z,36.40
2018-09-05T15:25:07.595Z,37.40
2018-09-05T15:28:12.090Z,35.80
2018-09-05T15:31:16.495Z,35.90
2018-09-05T15:34:21.139Z,35.90
2018-09-05T15:37:25.237Z,35.60
2018-09-05T15:40:29.590Z,35.90
2018-09-05T15:43:33.732Z,36.00
2018-09-05T15:46:37.973Z,38.40
2018-09-05T15:49:42.444Z,38.40
2018-09-05T15:52:46.701Z,38.40
2018-09-05T15:55:51.087Z,36.30
2018-09-05T15:58:55.331Z,36.80
2018-09-05T16:01:59.691Z,37.90
2018-09-05T16:05:04.202Z,38.80
2018-09-05T16:08:08.945Z,40.00
2018-09-05T16:11:13.407Z,40.80
2018-09-05T16:14:17.724Z,41.50
2018-09-05T16:17:21.992Z,41.90
2018-09-05T16:20:26.241Z,42.40
2018-09-05T16:23:30.673Z,43.00
2018-09-05T16:26:34.879Z,43.30
2018-09-05T16:29:39.654Z,43.60
2018-09-05T16:32:43.937Z,44.10
2018-09-05T16:35:48.402Z,44.40
2018-09-05T16:38:52.695Z,44.70
2018-09-05T16:41:57.111Z,45.30
2018-09-05T16:45:01.590Z,45.70
2018-09-05T16:48:05.993Z,46.00
2018-09-05T16:51:10.487Z,46.40
2018-09-05T16:54:14.994Z,47.10
2018-09-05T16:57:19.518Z,47.10
2018-09-05T17:00:23.871Z,47.70
2018-09-05T17:03:27.759Z,47.60
2018-09-05T17:06:32.230Z,47.30
2018-09-05T17:09:36.400Z,47.80
2018-09-05T17:12:40.887Z,47.80
2018-09-05T17:15:45.179Z,48.10
2018-09-05T17:18:49.567Z,48.30
2018-09-05T17:21:54.025Z,48.20
2018-09-05T17:24:57.975Z,48.60
2018-09-05T17:28:01.994Z,48.90
2018-09-05T17:31:06.856Z,49.00
2018-09-05T17:34:11.404Z,49.10
2018-09-05T17:37:15.674Z,49.10
2018-09-05T17:40:19.586Z,49.70
2018-09-05T17:43:23.536Z,49.80
2018-09-05T17:46:27.999Z,50.20
2018-09-05T17:49:32.312Z,50.80
2018-09-05T17:52:36.704Z,51.70
2018-09-05T17:55:41.177Z,52.30
2018-09-05T17:58:45.142Z,52.60
2018-09-05T18:01:49.755Z,52.70
2018-09-05T18:04:54.104Z,52.70
2018-09-05T18:07:58.496Z,52.50
2018-09-05T18:11:02.502Z,52.70
2018-09-05T18:14:06.761Z,53.00
2018-09-05T18:17:11.661Z,53.20
2018-09-05T18:20:16.568Z,53.80
2018-09-05T18:23:20.971Z,54.10
2018-09-05T18:26:25.404Z,54.50
2018-09-05T18:29:29.592Z,55.00
2018-09-05T18:32:39.778Z,55.50
2018-09-05T18:35:46.653Z,55.90
2018-09-05T18:38:50.730Z,56.40
2018-09-05T18:42:00.964Z,56.90
2018-09-05T18:45:07.010Z,57.20
2018-09-05T18:48:12.618Z,57.40
2018-09-05T18:51:17.322Z,57.70
2018-09-05T18:54:22.557Z,57.60
2018-09-05T18:57:27.677Z,57.60
2018-09-05T19:00:32.894Z,57.60
2018-09-05T19:03:41.152Z,57.20
2018-09-05T19:06:45.527Z,57.60
2018-09-05T19:09:50.451Z,58.70
2018-09-05T19:12:58.120Z,59.00
2018-09-05T19:16:02.514Z,59.00
2018-09-05T19:19:07.035Z,58.90
2018-09-05T19:22:11.533Z,59.00
2018-09-05T19:25:16.246Z,58.80
2018-09-05T19:28:20.382Z,58.80
2018-09-05T19:31:24.818Z,58.70
2018-09-05T19:34:29.052Z,58.70
2018-09-05T19:37:33.422Z,58.60
2018-09-05T19:40:38.475Z,58.90
2018-09-05T19:43:42.956Z,59.20
2018-09-05T19:46:47.909Z,59.70
2018-09-05T19:49:52.116Z,60.00
2018-09-05T19:52:56.573Z,60.80
2018-09-05T19:56:00.843Z,60.80
2018-09-05T19:59:06.864Z,60.90
2018-09-05T20:02:12.699Z,61.30
2018-09-05T20:05:17.658Z,61.60
2018-09-05T20:08:21.655Z,62.00
2018-09-05T20:11:25.940Z,62.00
2018-09-05T20:14:31.039Z,62.00
2018-09-05T20:17:35.185Z,62.00
2018-09-05T20:20:39.412Z,61.90
2018-09-05T20:23:44.293Z,62.00
2018-09-05T20:26:48.402Z,62.40
2018-09-05T20:29:52.788Z,62.70
2018-09-05T20:32:57.419Z,62.60
2018-09-05T20:36:01.919Z,62.10
2018-09-05T20:39:09.091Z,62.10
2018-09-05T20:42:13.612Z,62.40
2018-09-05T20:45:18.005Z,62.70
2018-09-05T20:48:22.522Z,63.00
2018-09-05T20:51:27.022Z,63.50
2018-09-05T20:54:31.457Z,63.80
2018-09-05T20:57:35.825Z,63.80
2018-09-05T21:00:40.192Z,63.50
2018-09-05T21:03:44.753Z,63.20
2018-09-05T21:06:49.883Z,62.80
2018-09-05T21:09:54.308Z,62.90
2018-09-05T21:12:59.147Z,63.10
2018-09-05T21:16:03.745Z,63.40
2018-09-05T21:19:08.127Z,63.70
2018-09-05T21:22:12.703Z,63.70
2018-09-05T21:25:17.154Z,63.70
2018-09-05T21:28:22.808Z,64.00
2018-09-05T21:31:27.242Z,64.30
2018-09-05T21:34:31.824Z,64.70
2018-09-05T21:37:36.109Z,64.80
2018-09-05T21:40:40.784Z,65.60
2018-09-05T21:43:46.093Z,65.40
2018-09-05T21:46:50.346Z,65.50
2018-09-05T21:49:54.739Z,65.90
2018-09-05T21:52:59.072Z,66.80
2018-09-05T21:56:03.593Z,66.80
2018-09-05T21:59:07.864Z,66.60
2018-09-05T22:02:12.594Z,66.50
2018-09-05T22:05:16.628Z,66.50
2018-09-05T22:08:21.536Z,66.70
2018-09-05T22:11:27.022Z,66.60
2018-09-05T22:14:31.210Z,67.10
2018-09-05T22:17:35.351Z,66.80
2018-09-05T22:20:39.804Z,66.80
2018-09-05T22:23:44.235Z,66.70
2018-09-05T22:26:48.636Z,66.80
2018-09-05T22:29:53.009Z,66.90
2018-09-05T22:32:57.300Z,66.60
2018-09-05T22:36:01.487Z,66.70
2018-09-05T22:39:07.149Z,66.70
2018-09-05T22:42:13.217Z,66.70
2018-09-05T22:45:28.280Z,66.50
2018-09-05T22:51:55.265Z,66.50
2018-09-05T22:55:14.274Z,66.60
2018-09-05T22:58:37.578Z,67.50
2018-09-05T23:02:50.786Z,67.30
2018-09-05T23:06:16.387Z,67.20
2018-09-05T23:09:31.113Z,66.40
2018-09-05T23:12:45.901Z,66.30
2018-09-05T23:16:00.739Z,65.90
2018-09-05T23:19:44.834Z,65.60
2018-09-05T23:22:59.912Z,65.10
2018-09-05T23:26:04.274Z,64.90
2018-09-05T23:29:08.546Z,65.30
2018-09-05T23:32:12.886Z,65.20
2018-09-05T23:35:17.187Z,64.70
2018-09-05T23:38:21.532Z,64.60
2018-09-05T23:41:25.890Z,64.90
2018-09-05T23:44:30.166Z,65.40
2018-09-05T23:47:34.527Z,65.70
2018-09-05T23:50:38.819Z,66.10
2018-09-05T23:53:43.131Z,66.30
2018-09-05T23:56:47.790Z,66.60
2018-09-05T23:59:52.179Z,67.10
